sensor_id;sensor_type;location;lat;lon;timestamp;temperature;humidity
10354;DHT22;5223;50.924;13.338;2022-08-25T00:00:28;16.90;99.90
10354;DHT22;5223;50.924;13.338;2022-08-25T00:03:12;16.90;99.90
10354;DHT22;5223;50.924;13.338;2022-08-25T00:05:59;16.80;99.90
10354;DHT22;5223;50.924;13.338;2022-08-25T00:08:49;16.80;99.90
10354;DHT22;5223;50.924;13.338;2022-08-25T00:11:29;16.80;99.90
10354;DHT22;5223;50.924;13.338;2022-08-25T00:14:03;16.80;99.90
10354;DHT22;5223;50.924;13.338;2022-08-25T00:16:55;16.70;99.90
10354;DHT22;5223;50.924;13.338;2022-08-25T00:19:40;16.60;99.90
10354;DHT22;5223;50.924;13.338;2022-08-25T00:22:47;16.70;99.90
10354;DHT22;5223;50.924;13.338;2022-08-25T00:25:31;16.70;99.90
10354;DHT22;5223;50.924;13.338;2022-08-25T00:28:11;16.70;99.90
10354;DHT22;5223;50.924;13.338;2022-08-25T00:30:49;16.70;99.90
10354;DHT22;5223;50.924;13.338;2022-08-25T00:33:36;16.60;99.90
10354;DHT22;5223;50.924;13.338;2022-08-25T00:36:12;16.60;99.90
10354;DHT22;5223;50.924;13.338;2022-08-25T00:42:17;16.50;99.90
10354;DHT22;5223;50.924;13.338;2022-08-25T00:45:12;16.50;99.90
10354;DHT22;5223;50.924;13.338;2022-08-25T00:47:58;16.50;99.90
10354;DHT22;5223;50.924;13.338;2022-08-25T00:50:38;16.50;99.90
10354;DHT22;5223;50.924;13.338;2022-08-25T00:53:10;16.40;99.90
10354;DHT22;5223;50.924;13.338;2022-08-25T00:56:01;16.40;99.90
10354;DHT22;5223;50.924;13.338;2022-08-25T00:58:54;16.30;99.90
10354;DHT22;5223;50.924;13.338;2022-08-25T01:01:40;16.40;99.90
10354;DHT22;5223;50.924;13.338;2022-08-25T01:04:13;16.30;99.90
10354;DHT22;5223;50.924;13.338;2022-08-25T01:06:56;16.40;99.90
10354;DHT22;5223;50.924;13.338;2022-08-25T01:09:37;16.30;99.90
10354;DHT22;5223;50.924;13.338;2022-08-25T01:12:25;16.40;99.90
10354;DHT22;5223;50.924;13.338;2022-08-25T01:15:31;16.40;99.90
10354;DHT22;5223;50.924;13.338;2022-08-25T01:18:31;16.40;99.90
10354;DHT22;5223;50.924;13.338;2022-08-25T01:24:49;16.30;99.90
10354;DHT22;5223;50.924;13.338;2022-08-25T01:27:36;16.30;99.90
10354;DHT22;5223;50.924;13.338;2022-08-25T01:30:32;16.30;99.90
10354;DHT22;5223;50.924;13.338;2022-08-25T01:33:23;16.20;99.90
10354;DHT22;5223;50.924;13.338;2022-08-25T01:36:00;16.30;99.90
10354;DHT22;5223;50.924;13.338;2022-08-25T01:38:36;16.30;99.90
10354;DHT22;5223;50.924;13.338;2022-08-25T01:47:36;16.10;99.90
10354;DHT22;5223;50.924;13.338;2022-08-25T01:50:07;16.10;99.90
10354;DHT22;5223;50.924;13.338;2022-08-25T01:52:49;16.10;99.90
10354;DHT22;5223;50.924;13.338;2022-08-25T01:55:25;16.10;99.90
10354;DHT22;5223;50.924;13.338;2022-08-25T01:58:26;16.00;99.90
10354;DHT22;5223;50.924;13.338;2022-08-25T02:01:26;16.10;99.90
10354;DHT22;5223;50.924;13.338;2022-08-25T02:07:33;16.00;99.90
10354;DHT22;5223;50.924;13.338;2022-08-25T02:10:17;16.00;99.90
10354;DHT22;5223;50.924;13.338;2022-08-25T02:13:08;16.00;99.90
10354;DHT22;5223;50.924;13.338;2022-08-25T02:15:47;16.00;99.90
10354;DHT22;5223;50.924;13.338;2022-08-25T02:18:26;15.90;99.90
10354;DHT22;5223;50.924;13.338;2022-08-25T02:21:13;15.90;99.90
10354;DHT22;5223;50.924;13.338;2022-08-25T02:23:56;15.90;99.90
10354;DHT22;5223;50.924;13.338;2022-08-25T02:26:34;15.90;99.90
10354;DHT22;5223;50.924;13.338;2022-08-25T02:29:11;16.00;99.90
10354;DHT22;5223;50.924;13.338;2022-08-25T02:31:51;15.90;99.90
10354;DHT22;5223;50.924;13.338;2022-08-25T02:34:24;15.90;99.90
10354;DHT22;5223;50.924;13.338;2022-08-25T02:37:07;15.90;99.90
10354;DHT22;5223;50.924;13.338;2022-08-25T02:39:54;15.90;99.90
10354;DHT22;5223;50.924;13.338;2022-08-25T02:42:44;15.90;99.90
10354;DHT22;5223;50.924;13.338;2022-08-25T02:45:35;15.90;99.90
10354;DHT22;5223;50.924;13.338;2022-08-25T02:48:18;15.90;99.90
10354;DHT22;5223;50.924;13.338;2022-08-25T02:50:54;15.90;99.90
10354;DHT22;5223;50.924;13.338;2022-08-25T02:53:49;16.00;99.90
10354;DHT22;5223;50.924;13.338;2022-08-25T02:56:37;15.90;99.90
10354;DHT22;5223;50.924;13.338;2022-08-25T02:59:30;15.90;99.90
10354;DHT22;5223;50.924;13.338;2022-08-25T03:02:19;15.90;99.90
10354;DHT22;5223;50.924;13.338;2022-08-25T03:04:58;15.90;99.90
10354;DHT22;5223;50.924;13.338;2022-08-25T03:07:47;15.90;99.90
10354;DHT22;5223;50.924;13.338;2022-08-25T03:10:45;15.90;99.90
10354;DHT22;5223;50.924;13.338;2022-08-25T03:13:40;15.80;99.90
10354;DHT22;5223;50.924;13.338;2022-08-25T03:16:22;15.80;99.90
10354;DHT22;5223;50.924;13.338;2022-08-25T03:19:05;15.80;99.90
10354;DHT22;5223;50.924;13.338;2022-08-25T03:21:39;15.70;99.90
10354;DHT22;5223;50.924;13.338;2022-08-25T03:24:21;15.70;99.90
10354;DHT22;5223;50.924;13.338;2022-08-25T03:27:03;15.70;99.90
10354;DHT22;5223;50.924;13.338;2022-08-25T03:29:55;15.70;99.90
10354;DHT22;5223;50.924;13.338;2022-08-25T03:32:36;15.70;99.90
10354;DHT22;5223;50.924;13.338;2022-08-25T03:35:18;15.70;99.90
10354;DHT22;5223;50.924;13.338;2022-08-25T03:37:55;15.70;99.90
10354;DHT22;5223;50.924;13.338;2022-08-25T03:40:35;15.60;99.90
10354;DHT22;5223;50.924;13.338;2022-08-25T03:43:13;15.60;99.90
10354;DHT22;5223;50.924;13.338;2022-08-25T03:45:49;15.60;99.90
10354;DHT22;5223;50.924;13.338;2022-08-25T03:48:17;15.60;99.90
10354;DHT22;5223;50.924;13.338;2022-08-25T03:51:00;15.50;99.90
10354;DHT22;5223;50.924;13.338;2022-08-25T03:53:31;15.50;99.90
10354;DHT22;5223;50.924;13.338;2022-08-25T03:56:03;15.50;99.90
10354;DHT22;5223;50.924;13.338;2022-08-25T03:58:35;15.60;99.90
10354;DHT22;5223;50.924;13.338;2022-08-25T04:01:07;15.60;99.90
10354;DHT22;5223;50.924;13.338;2022-08-25T04:03:36;15.60;99.90
10354;DHT22;5223;50.924;13.338;2022-08-25T04:06:05;15.60;99.90
10354;DHT22;5223;50.924;13.338;2022-08-25T04:08:33;15.60;99.90
10354;DHT22;5223;50.924;13.338;2022-08-25T04:11:06;15.50;99.90
10354;DHT22;5223;50.924;13.338;2022-08-25T04:13:35;15.50;99.90
10354;DHT22;5223;50.924;13.338;2022-08-25T04:16:09;15.60;99.90
10354;DHT22;5223;50.924;13.338;2022-08-25T04:18:39;15.60;99.90
10354;DHT22;5223;50.924;13.338;2022-08-25T04:21:08;15.60;99.90
10354;DHT22;5223;50.924;13.338;2022-08-25T04:23:38;15.60;99.90
10354;DHT22;5223;50.924;13.338;2022-08-25T04:26:08;15.70;99.90
10354;DHT22;5223;50.924;13.338;2022-08-25T04:28:38;15.70;99.90
10354;DHT22;5223;50.924;13.338;2022-08-25T04:31:08;15.70;99.90
10354;DHT22;5223;50.924;13.338;2022-08-25T04:33:37;15.80;99.90
10354;DHT22;5223;50.924;13.338;2022-08-25T04:36:07;15.90;99.90
10354;DHT22;5223;50.924;13.338;2022-08-25T04:38:36;15.90;99.90
10354;DHT22;5223;50.924;13.338;2022-08-25T04:41:05;15.90;99.90
10354;DHT22;5223;50.924;13.338;2022-08-25T04:43:35;16.00;99.90
10354;DHT22;5223;50.924;13.338;2022-08-25T04:46:11;16.10;99.90
10354;DHT22;5223;50.924;13.338;2022-08-25T04:48:39;16.10;99.90
10354;DHT22;5223;50.924;13.338;2022-08-25T04:51:08;16.20;99.90
10354;DHT22;5223;50.924;13.338;2022-08-25T04:53:35;16.30;99.90
10354;DHT22;5223;50.924;13.338;2022-08-25T04:56:05;16.30;99.90
10354;DHT22;5223;50.924;13.338;2022-08-25T17:59:17;24.80;99.90
10354;DHT22;5223;50.924;13.338;2022-08-25T18:02:23;24.80;99.90
10354;DHT22;5223;50.924;13.338;2022-08-25T18:05:16;24.70;99.90
10354;DHT22;5223;50.924;13.338;2022-08-25T18:08:12;24.70;99.90
10354;DHT22;5223;50.924;13.338;2022-08-25T18:11:12;24.60;99.90
10354;DHT22;5223;50.924;13.338;2022-08-25T18:17:17;24.40;99.90
10354;DHT22;5223;50.924;13.338;2022-08-25T18:20:14;24.30;99.90
10354;DHT22;5223;50.924;13.338;2022-08-25T18:23:20;24.30;99.90
10354;DHT22;5223;50.924;13.338;2022-08-25T18:26:23;24.20;99.90
10354;DHT22;5223;50.924;13.338;2022-08-25T18:29:26;24.10;99.90
10354;DHT22;5223;50.924;13.338;2022-08-25T18:32:29;24.00;99.90
10354;DHT22;5223;50.924;13.338;2022-08-25T18:35:20;23.90;99.90
10354;DHT22;5223;50.924;13.338;2022-08-25T18:38:21;23.90;99.90
10354;DHT22;5223;50.924;13.338;2022-08-25T18:41:36;23.80;99.90
10354;DHT22;5223;50.924;13.338;2022-08-25T18:44:36;23.70;99.90
10354;DHT22;5223;50.924;13.338;2022-08-25T18:47:44;23.60;99.90
10354;DHT22;5223;50.924;13.338;2022-08-25T18:50:37;23.50;99.90
10354;DHT22;5223;50.924;13.338;2022-08-25T18:53:29;23.40;99.90
10354;DHT22;5223;50.924;13.338;2022-08-25T18:56:46;23.40;99.90
10354;DHT22;5223;50.924;13.338;2022-08-25T18:59:47;23.30;99.90
10354;DHT22;5223;50.924;13.338;2022-08-25T19:05:55;23.10;99.90
10354;DHT22;5223;50.924;13.338;2022-08-25T19:08:45;23.00;99.90
10354;DHT22;5223;50.924;13.338;2022-08-25T19:12:02;23.00;99.90
10354;DHT22;5223;50.924;13.338;2022-08-25T19:15:06;22.90;99.90
10354;DHT22;5223;50.924;13.338;2022-08-25T19:18:17;22.90;99.90
10354;DHT22;5223;50.924;13.338;2022-08-25T19:21:42;22.80;99.90
10354;DHT22;5223;50.924;13.338;2022-08-25T19:27:44;22.60;99.90
10354;DHT22;5223;50.924;13.338;2022-08-25T22:04:58;20.60;99.90
10354;DHT22;5223;50.924;13.338;2022-08-25T22:07:56;20.50;99.90
10354;DHT22;5223;50.924;13.338;2022-08-25T22:10:57;20.50;99.90
10354;DHT22;5223;50.924;13.338;2022-08-25T22:14:09;20.60;99.90
10354;DHT22;5223;50.924;13.338;2022-08-25T22:33:23;20.40;99.90
10354;DHT22;5223;50.924;13.338;2022-08-25T22:36:32;20.40;99.90
10354;DHT22;5223;50.924;13.338;2022-08-25T22:39:43;20.30;99.90
10354;DHT22;5223;50.924;13.338;2022-08-25T22:42:45;20.30;99.90
10354;DHT22;5223;50.924;13.338;2022-08-25T22:45:53;20.20;99.90
10354;DHT22;5223;50.924;13.338;2022-08-25T22:49:08;20.20;99.90
10354;DHT22;5223;50.924;13.338;2022-08-25T22:52:09;20.20;99.90
10354;DHT22;5223;50.924;13.338;2022-08-25T22:58:26;20.10;99.90
10354;DHT22;5223;50.924;13.338;2022-08-25T23:01:27;20.00;99.90
10354;DHT22;5223;50.924;13.338;2022-08-25T23:18:09;19.90;99.90
10354;DHT22;5223;50.924;13.338;2022-08-25T23:21:43;19.80;99.90
10354;DHT22;5223;50.924;13.338;2022-08-25T23:27:25;19.70;99.90
10354;DHT22;5223;50.924;13.338;2022-08-25T23:30:09;19.60;99.90
